createdAt,value
2018-05-18T00:00:40.552Z,30.58
2018-05-18T00:03:07.272Z,29.27
2018-05-18T00:05:34.136Z,30.77
2018-05-18T00:08:00.535Z,31.15
2018-05-18T00:10:27.079Z,30.60
2018-05-18T00:12:54.619Z,30.02
2018-05-18T00:15:21.241Z,31.48
2018-05-18T00:17:48.310Z,37.40
2018-05-18T00:20:15.941Z,33.40
2018-05-18T00:22:43.166Z,31.25
2018-05-18T00:25:09.738Z,30.58
2018-05-18T00:27:37.250Z,35.00
2018-05-18T00:30:03.898Z,35.10
2018-05-18T00:32:30.368Z,31.25
2018-05-18T00:34:56.773Z,33.42
2018-05-18T00:37:23.529Z,31.50
2018-05-18T00:39:50.808Z,35.77
2018-05-18T00:42:18.213Z,34.75
2018-05-18T00:44:45.830Z,32.67
2018-05-18T00:47:13.130Z,37.57
2018-05-18T00:49:41.400Z,37.75
2018-05-18T00:52:08.002Z,40.60
2018-05-18T00:54:34.724Z,41.60
2018-05-18T00:57:02.076Z,38.55
2018-05-18T00:59:28.587Z,38.72
2018-05-18T01:01:55.023Z,38.90
2018-05-18T01:04:22.200Z,38.90
2018-05-18T01:06:49.847Z,41.08
2018-05-18T01:09:16.556Z,38.75
2018-05-18T01:11:43.370Z,37.58
2018-05-18T01:14:09.752Z,38.67
2018-05-18T01:16:37.359Z,40.85
2018-05-18T01:19:04.206Z,43.50
2018-05-18T01:21:30.649Z,39.42
2018-05-18T01:23:57.157Z,39.33
2018-05-18T01:26:23.684Z,41.22
2018-05-18T01:28:50.229Z,39.50
2018-05-18T01:31:18.706Z,44.83
2018-05-18T01:33:45.342Z,36.92
2018-05-18T01:36:12.130Z,38.72
2018-05-18T01:38:38.663Z,40.90
2018-05-18T01:41:06.179Z,39.42
2018-05-18T01:43:33.088Z,41.50
2018-05-18T01:45:59.880Z,39.28
2018-05-18T01:48:26.392Z,37.47
2018-05-18T01:50:53.705Z,39.63
2018-05-18T01:53:20.157Z,41.28
2018-05-18T01:55:47.381Z,41.80
2018-05-18T01:58:14.123Z,37.42
2018-05-18T02:00:40.767Z,38.13
2018-05-18T02:03:07.379Z,40.57
2018-05-18T02:05:34.571Z,38.00
2018-05-18T02:08:01.290Z,36.97
2018-05-18T02:10:27.949Z,41.08
2018-05-18T02:12:54.539Z,43.70
2018-05-18T02:15:21.377Z,43.25
2018-05-18T02:17:49.082Z,43.03
2018-05-18T02:20:16.499Z,45.63
2018-05-18T02:22:44.715Z,39.80
2018-05-18T02:25:11.156Z,43.95
2018-05-18T02:27:37.625Z,37.17
2018-05-18T02:30:04.414Z,45.90
2018-05-18T02:32:32.668Z,47.05
2018-05-18T02:34:59.169Z,48.28
2018-05-18T02:37:25.586Z,47.17
2018-05-18T02:39:52.087Z,45.28
2018-05-18T02:42:18.527Z,45.40
2018-05-18T02:44:45.054Z,51.75
2018-05-18T02:47:12.325Z,56.03
2018-05-18T02:49:38.889Z,58.65
2018-05-18T02:52:05.344Z,56.78
2018-05-18T02:54:31.773Z,60.83
2018-05-18T02:56:58.252Z,59.08
2018-05-18T02:59:25.526Z,57.00
2018-05-18T03:01:52.731Z,59.22
2018-05-18T03:04:19.259Z,56.70
2018-05-18T03:06:46.533Z,64.47
2018-05-18T03:09:13.703Z,65.07
2018-05-18T03:11:40.856Z,59.97
2018-05-18T03:14:07.338Z,62.15
2018-05-18T03:16:33.894Z,63.92
2018-05-18T03:19:00.404Z,56.42
2018-05-18T03:21:26.806Z,53.80
2018-05-18T03:23:53.360Z,55.10
2018-05-18T03:26:19.822Z,51.78
2018-05-18T03:28:46.274Z,56.53
2018-05-18T03:31:13.449Z,58.80
2018-05-18T03:33:39.887Z,57.65
2018-05-18T03:36:06.286Z,61.33
2018-05-18T03:38:33.734Z,61.58
2018-05-18T03:41:00.131Z,59.05
2018-05-18T03:43:26.577Z,61.40
2018-05-18T03:45:53.008Z,56.60
2018-05-18T03:48:19.460Z,57.92
2018-05-18T03:50:45.914Z,56.20
2018-05-18T03:53:13.076Z,50.92
2018-05-18T03:55:40.219Z,54.08
2018-05-18T03:58:06.715Z,46.72
2018-05-18T04:00:34.364Z,50.25
2018-05-18T04:03:14.149Z,52.10
2018-05-18T04:05:53.574Z,52.58
2018-05-18T04:08:45.091Z,47.97
2018-05-18T04:11:11.569Z,51.92
2018-05-18T04:13:38.818Z,47.30
2018-05-18T04:16:06.805Z,48.03
2018-05-18T04:18:33.287Z,50.67
2018-05-18T04:20:59.725Z,48.42
2018-05-18T04:23:26.160Z,52.85
2018-05-18T04:25:52.596Z,48.78
2018-05-18T04:28:20.078Z,47.53
2018-05-18T04:30:46.692Z,42.13
2018-05-18T04:33:13.934Z,45.12
2018-05-18T04:35:40.337Z,46.45
2018-05-18T04:38:06.799Z,47.28
2018-05-18T04:40:33.291Z,49.38
2018-05-18T04:42:59.694Z,42.62
2018-05-18T04:45:27.068Z,41.65
2018-05-18T04:47:53.496Z,47.03
2018-05-18T04:50:19.977Z,47.67
2018-05-18T04:52:47.254Z,48.53
2018-05-18T04:55:13.710Z,52.13
2018-05-18T04:57:40.371Z,46.40
2018-05-18T05:00:06.836Z,46.45
2018-05-18T05:02:33.252Z,47.78
2018-05-18T05:04:59.840Z,45.92
2018-05-18T05:07:27.978Z,46.15
2018-05-18T05:09:54.596Z,46.60
2018-05-18T05:12:22.895Z,44.75
2018-05-18T05:14:50.210Z,48.47
2018-05-18T05:17:16.767Z,48.85
2018-05-18T05:19:43.195Z,45.22
2018-05-18T05:22:09.689Z,49.05
2018-05-18T05:24:36.118Z,45.53
2018-05-18T05:27:03.352Z,45.58
2018-05-18T05:29:30.643Z,48.55
2018-05-18T05:31:57.793Z,45.47
2018-05-18T05:34:24.241Z,43.95
2018-05-18T05:36:51.425Z,44.78
2018-05-18T05:39:18.565Z,48.63
2018-05-18T05:41:45.071Z,43.70
2018-05-18T05:44:12.243Z,48.08
2018-05-18T05:46:39.411Z,45.80
2018-05-18T05:49:06.596Z,41.22
2018-05-18T05:51:33.060Z,43.47
2018-05-18T05:53:59.580Z,39.47
2018-05-18T05:56:26.007Z,42.20
2018-05-18T05:58:52.458Z,37.70
2018-05-18T06:01:18.918Z,37.33
2018-05-18T06:03:45.483Z,38.53
2018-05-18T06:06:11.989Z,36.50
2018-05-18T06:08:38.545Z,35.70
2018-05-18T06:11:05.804Z,37.15
2018-05-18T06:13:33.752Z,38.33
2018-05-18T06:16:00.368Z,39.95
2018-05-18T06:18:27.726Z,38.05
2018-05-18T06:20:55.125Z,36.13
2018-05-18T06:23:21.661Z,39.47
2018-05-18T06:25:48.179Z,41.60
2018-05-18T06:28:14.801Z,39.22
2018-05-18T06:30:41.361Z,42.08
2018-05-18T06:33:07.889Z,39.15
2018-05-18T06:35:35.222Z,43.13
2018-05-18T06:38:02.467Z,38.03
2018-05-18T06:40:29.124Z,40.40
2018-05-18T06:42:55.626Z,43.22
2018-05-18T06:45:22.114Z,39.17
2018-05-18T06:47:48.798Z,36.80
2018-05-18T06:50:16.116Z,38.10
2018-05-18T06:52:42.618Z,42.50
2018-05-18T06:55:09.946Z,40.72
2018-05-18T06:57:36.494Z,40.25
2018-05-18T07:00:03.230Z,41.05
2018-05-18T07:02:30.076Z,41.10
2018-05-18T07:04:57.343Z,37.28
2018-05-18T07:07:24.233Z,38.10
2018-05-18T07:09:50.769Z,39.35
2018-05-18T07:12:17.256Z,37.90
2018-05-18T07:14:43.777Z,40.28
2018-05-18T07:17:10.308Z,37.78
2018-05-18T07:19:36.820Z,35.42
2018-05-18T07:22:03.376Z,35.17
2018-05-18T07:24:30.604Z,34.85
2018-05-18T07:26:57.209Z,33.80
2018-05-18T07:29:24.646Z,32.97
2018-05-18T07:31:51.130Z,33.80
2018-05-18T07:34:17.705Z,31.73
2018-05-18T07:36:44.188Z,31.80
2018-05-18T07:39:10.693Z,36.10
2018-05-18T07:41:37.926Z,31.30
2018-05-18T07:44:04.555Z,27.37
2018-05-18T07:46:31.795Z,27.50
2018-05-18T07:48:58.273Z,30.85
2018-05-18T07:51:25.502Z,29.45
2018-05-18T07:53:51.973Z,28.40
2018-05-18T07:56:18.446Z,27.92
2018-05-18T07:58:46.193Z,28.33
2018-05-18T08:01:12.689Z,26.00
2018-05-18T08:03:39.982Z,25.98
2018-05-18T08:06:07.038Z,25.90
2018-05-18T08:08:34.272Z,27.23
2018-05-18T08:11:00.892Z,25.17
2018-05-18T08:13:27.345Z,24.52
2018-05-18T08:15:54.725Z,22.25
2018-05-18T08:18:21.958Z,23.15
2018-05-18T08:20:48.444Z,20.88
2018-05-18T08:23:14.997Z,23.60
2018-05-18T08:25:41.574Z,23.98
2018-05-18T08:28:08.067Z,29.87
2018-05-18T08:30:46.681Z,24.52
2018-05-18T08:33:13.199Z,22.67
2018-05-18T08:35:40.537Z,23.73
2018-05-18T08:38:07.056Z,25.17
2018-05-18T08:40:33.513Z,22.87
2018-05-18T08:43:00.164Z,25.55
2018-05-18T08:45:27.402Z,21.37
2018-05-18T08:47:53.877Z,21.30
2018-05-18T08:50:20.410Z,22.77
2018-05-18T08:52:46.920Z,23.23
2018-05-18T08:55:13.423Z,22.48
2018-05-18T08:57:39.929Z,22.10
2018-05-18T09:00:06.416Z,20.50
2018-05-18T09:02:32.912Z,26.40
2018-05-18T09:04:59.432Z,21.80
2018-05-18T09:07:25.920Z,20.90
2018-05-18T09:09:52.513Z,22.85
2018-05-18T09:12:19.179Z,18.27
2018-05-18T09:14:45.733Z,24.67
2018-05-18T09:17:12.258Z,23.10
2018-05-18T09:19:38.750Z,22.10
2018-05-18T09:22:05.980Z,24.05
2018-05-18T09:24:32.455Z,22.60
2018-05-18T09:26:59.669Z,19.40
2018-05-18T09:29:26.172Z,18.80
2018-05-18T09:31:52.742Z,21.92
2018-05-18T09:34:20.024Z,19.95
2018-05-18T09:36:47.270Z,19.12
2018-05-18T09:39:13.787Z,22.13
2018-05-18T09:41:40.336Z,22.23
2018-05-18T09:44:06.858Z,23.98
2018-05-18T09:46:33.341Z,20.27
2018-05-18T09:49:00.563Z,21.80
2018-05-18T09:51:27.180Z,19.83
2018-05-18T09:53:54.555Z,21.43
2018-05-18T09:56:22.412Z,22.92
2018-05-18T09:58:48.915Z,21.60
2018-05-18T10:01:15.744Z,20.03
2018-05-18T10:03:42.426Z,19.92
2018-05-18T10:06:08.984Z,20.20
2018-05-18T10:08:35.462Z,20.30
2018-05-18T10:11:02.105Z,20.48
2018-05-18T10:13:29.708Z,18.15
2018-05-18T10:15:57.261Z,18.00
2018-05-18T10:18:24.744Z,20.27
2018-05-18T10:20:51.217Z,19.23
2018-05-18T10:23:17.697Z,19.67
2018-05-18T10:25:44.169Z,17.98
2018-05-18T10:28:10.733Z,20.10
2018-05-18T10:30:38.153Z,20.80
2018-05-18T10:33:04.721Z,19.75
2018-05-18T10:35:31.946Z,17.80
2018-05-18T10:37:58.944Z,18.50
2018-05-18T10:40:26.202Z,19.12
2018-05-18T10:42:52.783Z,21.85
2018-05-18T10:45:19.295Z,19.62
2018-05-18T10:47:45.789Z,20.23
2018-05-18T10:50:13.089Z,16.42
2018-05-18T10:52:39.592Z,18.70
2018-05-18T10:55:06.192Z,16.85
2018-05-18T10:57:32.746Z,17.17
2018-05-18T10:59:59.961Z,21.45
2018-05-18T11:02:26.479Z,20.15
2018-05-18T11:04:53.759Z,18.17
2018-05-18T11:07:22.463Z,18.12
2018-05-18T11:09:48.978Z,18.00
2018-05-18T11:12:16.321Z,17.75
2018-05-18T11:14:42.959Z,17.87
2018-05-18T11:17:09.613Z,17.05
2018-05-18T11:19:36.172Z,18.58
2018-05-18T11:22:03.575Z,16.47
2018-05-18T11:24:30.211Z,17.20
2018-05-18T11:26:58.032Z,17.60
2018-05-18T11:29:25.404Z,16.30
2018-05-18T11:31:51.912Z,15.70
2018-05-18T11:34:19.206Z,16.05
2018-05-18T11:36:45.746Z,18.58
2018-05-18T11:39:12.271Z,16.05
2018-05-18T11:41:39.292Z,17.60
2018-05-18T11:44:05.849Z,16.15
2018-05-18T11:46:33.172Z,16.25
2018-05-18T11:48:59.721Z,16.95
2018-05-18T11:51:26.693Z,17.42
2018-05-18T11:53:53.205Z,18.27
2018-05-18T11:56:20.583Z,18.83
2018-05-18T11:58:47.082Z,16.85
2018-05-18T12:01:14.230Z,17.08
2018-05-18T12:03:40.769Z,17.80
2018-05-18T12:06:07.265Z,16.20
2018-05-18T12:08:34.406Z,17.05
2018-05-18T12:11:19.078Z,17.30
2018-05-18T12:14:03.848Z,16.77
2018-05-18T12:16:48.811Z,18.70
2018-05-18T12:19:15.312Z,15.40
2018-05-18T12:21:41.743Z,17.27
2018-05-18T12:24:08.259Z,16.75
2018-05-18T12:26:34.821Z,17.23
2018-05-18T12:29:01.321Z,17.10
2018-05-18T12:31:28.030Z,17.92
2018-05-18T12:33:54.479Z,16.98
2018-05-18T12:36:21.688Z,16.85
2018-05-18T12:38:48.124Z,18.40
2018-05-18T12:41:14.683Z,18.37
2018-05-18T12:43:41.203Z,18.77
2018-05-18T12:46:07.651Z,17.73
2018-05-18T12:48:34.098Z,17.92
2018-05-18T12:51:00.546Z,18.00
2018-05-18T12:53:29.060Z,17.23
2018-05-18T12:55:55.475Z,18.20
2018-05-18T12:58:21.906Z,16.98
2018-05-18T13:00:49.196Z,18.40
2018-05-18T13:03:15.611Z,16.30
2018-05-18T13:05:42.049Z,16.90
2018-05-18T13:08:08.611Z,17.50
2018-05-18T13:10:35.060Z,16.27
2018-05-18T13:13:01.516Z,17.40
2018-05-18T13:15:27.944Z,17.20
2018-05-18T13:17:54.396Z,15.90
2018-05-18T13:20:20.950Z,16.98
2018-05-18T13:22:48.114Z,16.23
2018-05-18T13:25:15.341Z,17.20
2018-05-18T13:27:41.861Z,16.90
2018-05-18T13:30:08.380Z,17.25
2018-05-18T13:32:34.816Z,17.90
2018-05-18T13:35:01.252Z,18.00
2018-05-18T13:37:27.674Z,17.65
2018-05-18T13:39:54.121Z,17.85
2018-05-18T13:42:21.321Z,17.65
2018-05-18T13:44:47.886Z,17.62
2018-05-18T13:47:14.853Z,17.37
2018-05-18T13:49:41.291Z,17.77
2018-05-18T13:52:07.751Z,18.27
2018-05-18T13:54:34.304Z,19.12
2018-05-18T13:57:00.690Z,17.83
2018-05-18T13:59:27.107Z,17.90
2018-05-18T14:01:54.286Z,17.48
2018-05-18T14:04:21.414Z,17.42
2018-05-18T14:06:47.810Z,18.73
2018-05-18T14:09:14.992Z,18.08
2018-05-18T14:11:42.029Z,16.80
2018-05-18T14:14:09.945Z,17.30
2018-05-18T14:16:37.116Z,17.58
2018-05-18T14:19:04.276Z,16.80
2018-05-18T14:21:31.484Z,18.95
2018-05-18T14:23:57.921Z,17.52
2018-05-18T14:26:24.414Z,18.42
2018-05-18T14:28:50.810Z,17.90
2018-05-18T14:31:17.957Z,17.87
2018-05-18T14:33:44.442Z,17.95
2018-05-18T14:36:11.631Z,17.60
2018-05-18T14:38:38.789Z,17.67
2018-05-18T14:41:06.614Z,18.52
2018-05-18T14:43:33.087Z,17.12
2018-05-18T14:45:59.706Z,18.90
2018-05-18T14:48:26.263Z,17.70
2018-05-18T14:50:52.723Z,16.98
2018-05-18T14:53:19.191Z,16.95
2018-05-18T14:55:45.719Z,18.87
2018-05-18T14:58:12.897Z,23.92
2018-05-18T15:00:40.112Z,16.73
2018-05-18T15:03:06.637Z,17.00
2018-05-18T15:05:33.193Z,16.62
2018-05-18T15:08:00.417Z,17.00
2018-05-18T15:10:27.742Z,17.02
2018-05-18T15:12:55.020Z,16.37
2018-05-18T15:15:21.488Z,16.65
2018-05-18T15:17:47.943Z,16.70
2018-05-18T15:20:14.486Z,16.83
2018-05-18T15:22:41.695Z,18.90
2018-05-18T15:25:08.124Z,18.12
2018-05-18T15:27:34.575Z,17.42
2018-05-18T15:30:03.318Z,16.90
2018-05-18T15:32:29.712Z,19.35
2018-05-18T15:34:56.156Z,18.92
2018-05-18T15:37:22.653Z,18.57
2018-05-18T15:39:49.071Z,18.80
2018-05-18T15:42:15.481Z,18.58
2018-05-18T15:44:41.913Z,19.40
2018-05-18T15:47:09.085Z,18.25
2018-05-18T15:49:36.363Z,19.20
2018-05-18T15:52:03.634Z,18.52
2018-05-18T15:54:30.911Z,19.05
2018-05-18T15:56:57.351Z,19.83
2018-05-18T15:59:24.544Z,20.30
2018-05-18T16:01:50.968Z,21.55
2018-05-18T16:04:17.375Z,22.20
2018-05-18T16:06:43.796Z,21.80
2018-05-18T16:09:10.962Z,20.62
2018-05-18T16:11:38.117Z,23.98
2018-05-18T16:14:04.583Z,22.23
2018-05-18T16:16:31.029Z,22.23
2018-05-18T16:18:57.519Z,19.97
2018-05-18T16:21:23.961Z,22.20
2018-05-18T16:23:51.848Z,22.70
2018-05-18T16:26:19.142Z,22.27
2018-05-18T16:28:45.593Z,23.87
2018-05-18T16:31:12.020Z,20.92
2018-05-18T16:33:38.434Z,21.50
2018-05-18T16:36:05.002Z,22.97
2018-05-18T16:38:32.121Z,23.33
2018-05-18T16:40:59.275Z,26.58
2018-05-18T16:43:25.763Z,24.30
2018-05-18T16:45:52.218Z,25.60
2018-05-18T16:48:19.391Z,22.60
2018-05-18T16:50:46.563Z,23.20
2018-05-18T16:53:13.740Z,23.70
2018-05-18T16:55:40.225Z,24.08
2018-05-18T16:58:07.384Z,24.83
2018-05-18T17:00:33.923Z,23.90
2018-05-18T17:03:01.195Z,26.95
2018-05-18T17:05:28.361Z,25.00
2018-05-18T17:07:55.542Z,23.90
2018-05-18T17:10:21.972Z,24.40
2018-05-18T17:12:48.454Z,28.52
2018-05-18T17:15:15.728Z,29.12
2018-05-18T17:17:42.897Z,24.77
2018-05-18T17:20:10.065Z,25.73
2018-05-18T17:22:37.351Z,26.95
2018-05-18T17:25:04.528Z,27.53
2018-05-18T17:27:30.973Z,26.20
2018-05-18T17:29:58.124Z,26.42
2018-05-18T17:32:24.576Z,26.67
2018-05-18T17:34:50.973Z,30.48
2018-05-18T17:37:17.518Z,28.08
2018-05-18T17:39:44.180Z,28.48
2018-05-18T17:42:10.606Z,27.90
2018-05-18T17:44:37.808Z,32.03
2018-05-18T17:47:04.245Z,34.22
2018-05-18T17:49:31.469Z,30.23
2018-05-18T17:51:57.926Z,31.75
2018-05-18T17:54:24.599Z,35.15
2018-05-18T17:56:51.108Z,35.15
2018-05-18T17:59:18.278Z,33.35
2018-05-18T18:01:45.474Z,34.60
2018-05-18T18:04:11.936Z,32.10
2018-05-18T18:06:38.364Z,33.13
2018-05-18T18:09:05.595Z,34.55
2018-05-18T18:11:32.044Z,34.58
2018-05-18T18:13:58.544Z,33.13
2018-05-18T18:16:25.218Z,31.83
2018-05-18T18:18:51.771Z,34.88
2018-05-18T18:21:19.057Z,34.63
2018-05-18T18:23:45.523Z,35.55
2018-05-18T18:26:11.961Z,33.47
2018-05-18T18:28:38.402Z,32.28
2018-05-18T18:31:06.009Z,32.92
2018-05-18T18:33:32.631Z,33.42
2018-05-18T18:35:59.420Z,38.27
2018-05-18T18:38:26.692Z,34.80
2018-05-18T18:40:53.938Z,34.20
2018-05-18T18:43:20.383Z,38.45
2018-05-18T18:45:46.884Z,35.15
2018-05-18T18:48:14.367Z,37.25
2018-05-18T18:50:40.803Z,35.55
2018-05-18T18:53:07.989Z,37.33
2018-05-18T18:55:34.496Z,35.28
2018-05-18T18:58:00.933Z,36.73
2018-05-18T19:00:27.561Z,33.80
2018-05-18T19:02:54.043Z,41.40
2018-05-18T19:05:20.502Z,36.90
2018-05-18T19:07:47.448Z,36.33
2018-05-18T19:10:13.872Z,37.47
2018-05-18T19:12:41.176Z,37.15
2018-05-18T19:15:07.657Z,40.10
2018-05-18T19:17:34.117Z,40.20
2018-05-18T19:20:00.747Z,42.45
2018-05-18T19:22:27.259Z,36.55
2018-05-18T19:24:53.726Z,40.10
2018-05-18T19:27:20.162Z,39.97
2018-05-18T19:29:46.752Z,38.10
2018-05-18T19:32:13.190Z,42.88
2018-05-18T19:34:39.693Z,40.10
2018-05-18T19:37:06.217Z,41.28
2018-05-18T19:39:32.803Z,42.05
2018-05-18T19:41:59.362Z,46.40
2018-05-18T19:44:26.640Z,49.17
2018-05-18T19:46:54.218Z,45.47
2018-05-18T19:49:20.886Z,48.92
2018-05-18T19:51:48.455Z,50.65
2018-05-18T19:54:15.642Z,50.05
2018-05-18T19:56:42.070Z,52.25
2018-05-18T19:59:09.319Z,49.92
2018-05-18T20:01:35.925Z,52.40
2018-05-18T20:04:02.434Z,52.20
2018-05-18T20:06:28.942Z,51.50
2018-05-18T20:08:55.495Z,54.30
2018-05-18T20:11:22.874Z,53.57
2018-05-18T20:13:50.061Z,57.45
2018-05-18T20:16:16.603Z,55.78
2018-05-18T20:18:43.059Z,57.78
2018-05-18T20:21:10.292Z,58.58
2018-05-18T20:23:36.727Z,56.75
2018-05-18T20:26:03.231Z,53.60
2018-05-18T20:28:30.522Z,56.70
2018-05-18T20:30:57.082Z,58.10
2018-05-18T20:33:24.250Z,55.53
2018-05-18T20:35:51.634Z,57.17
2018-05-18T20:38:18.220Z,54.05
2018-05-18T20:40:45.357Z,58.45
2018-05-18T20:43:11.837Z,56.60
2018-05-18T20:45:38.299Z,55.40
2018-05-18T20:48:05.228Z,54.10
2018-05-18T20:50:32.416Z,55.83
2018-05-18T20:52:58.822Z,53.80
2018-05-18T20:55:25.309Z,56.15
2018-05-18T20:57:52.486Z,52.62
2018-05-18T21:00:19.675Z,54.50
2018-05-18T21:02:46.118Z,51.83
2018-05-18T21:05:13.400Z,53.85
2018-05-18T21:07:40.554Z,53.50
2018-05-18T21:10:07.720Z,52.62
2018-05-18T21:12:35.019Z,52.20
2018-05-18T21:15:02.205Z,52.70
2018-05-18T21:17:28.636Z,52.15
2018-05-18T21:19:55.103Z,53.05
2018-05-18T21:22:22.787Z,55.05
2018-05-18T21:24:50.165Z,55.15
2018-05-18T21:27:16.616Z,52.33
2018-05-18T21:29:43.759Z,53.05
2018-05-18T21:32:10.190Z,54.70
2018-05-18T21:34:36.620Z,51.40
2018-05-18T21:37:03.055Z,53.53
2018-05-18T21:39:30.217Z,52.00
2018-05-18T21:41:57.395Z,52.15
2018-05-18T21:44:24.683Z,50.97
2018-05-18T21:46:51.235Z,49.75
2018-05-18T21:49:18.419Z,53.10
2018-05-18T21:51:44.842Z,50.35
2018-05-18T21:54:11.321Z,51.28
2018-05-18T21:56:37.782Z,53.10
2018-05-18T21:59:04.227Z,52.72
2018-05-18T22:01:31.508Z,51.05
2018-05-18T22:03:57.959Z,53.17
2018-05-18T22:06:25.345Z,51.60
2018-05-18T22:08:51.902Z,49.38
2018-05-18T22:11:18.459Z,54.27
2018-05-18T22:13:44.898Z,52.10
2018-05-18T22:16:12.074Z,47.53
2018-05-18T22:18:39.359Z,50.47
2018-05-18T22:21:05.830Z,49.22
2018-05-18T22:23:32.280Z,49.80
2018-05-18T22:25:58.683Z,48.65
2018-05-18T22:28:25.143Z,45.28
2018-05-18T22:30:51.746Z,42.40
2018-05-18T22:33:18.211Z,41.17
2018-05-18T22:35:44.651Z,39.90
2018-05-18T22:38:11.830Z,42.30
2018-05-18T22:40:38.898Z,43.03
2018-05-18T22:43:06.177Z,40.85
2018-05-18T22:45:34.000Z,39.63
2018-05-18T22:48:00.445Z,43.55
2018-05-18T22:50:26.973Z,39.70
2018-05-18T22:52:53.412Z,41.13
2018-05-18T22:55:20.636Z,38.55
2018-05-18T22:57:47.159Z,37.83
2018-05-18T23:00:19.324Z,37.58
2018-05-18T23:02:45.904Z,35.95
2018-05-18T23:05:12.350Z,39.10
2018-05-18T23:07:39.489Z,36.10
2018-05-18T23:10:05.953Z,35.15
2018-05-18T23:12:32.395Z,34.65
2018-05-18T23:14:59.000Z,36.97
2018-05-18T23:17:26.186Z,38.08
2018-05-18T23:19:52.731Z,36.28
2018-05-18T23:22:19.896Z,38.38
2018-05-18T23:24:47.076Z,36.05
2018-05-18T23:27:14.256Z,35.55
2018-05-18T23:29:40.809Z,38.03
2018-05-18T23:32:07.365Z,36.85
2018-05-18T23:34:33.780Z,39.72
2018-05-18T23:37:03.555Z,37.78
2018-05-18T23:39:30.109Z,36.60
2018-05-18T23:41:57.404Z,39.97
2018-05-18T23:44:23.848Z,37.28
2018-05-18T23:46:50.398Z,38.33
2018-05-18T23:49:16.800Z,39.85
2018-05-18T23:51:43.262Z,41.35
2018-05-18T23:54:09.712Z,40.30
2018-05-18T23:56:36.171Z,41.20
2018-05-18T23:59:02.673Z,39.67
